KALM/ALM METAR and TAF weather

Enter ICAO airport designator
Station Type Date Time Source
KALM METAR 2019/10/16 19:55 UTC NOAA

KALM 161955Z AUTO 17004KT 10SM CLR 22/02 A3024 RMK AO2


Station Type Date Time Source
KALM Decoded METAR 2019/10/16 19:55 UTC NOAA

Alamogordo-White, NM, United States (KALM) 32-50N 105-59W
Oct 16, 2019 - 03:55 PM EDT / 2019.10.16 1955 UTC
Wind: from the S (170 degrees) at 5 MPH (4 KT):0
Visibility: 10 mile(s):0
Sky conditions: clear
Temperature: 71 F (22 C)
Dew Point: 35 F (2 C)
Relative Humidity: 26%
Pressure (altimeter): 30.24 in. Hg (1024 hPa)
ob: KALM 161955Z AUTO 17004KT 10SM CLR 22/02 A3024 RMK AO2
cycle: 20

Station Type Date Time Source
KALM TAF UTC NOAA

Error!

Example: see airport list